createdAt,value
2022-12-17T00:01:09.770Z,80.63
2022-12-17T00:03:57.507Z,80.73
2022-12-17T00:06:45.195Z,80.65
2022-12-17T00:09:33.290Z,80.71
2022-12-17T00:12:22.154Z,80.67
2022-12-17T00:15:10.096Z,80.56
2022-12-17T00:17:57.776Z,80.45
2022-12-17T00:20:45.427Z,80.60
2022-12-17T00:23:33.838Z,80.70
2022-12-17T00:26:26.693Z,80.74
2022-12-17T00:29:14.216Z,80.62
2022-12-17T00:32:01.630Z,80.48
2022-12-17T00:34:51.177Z,80.53
2022-12-17T00:37:38.993Z,80.35
2022-12-17T00:40:28.004Z,80.55
2022-12-17T00:43:24.304Z,80.54
2022-12-17T00:46:14.572Z,80.63
2022-12-17T00:49:03.045Z,80.44
2022-12-17T00:51:50.473Z,80.60
2022-12-17T00:54:39.741Z,80.74
2022-12-17T00:57:27.466Z,80.78
2022-12-17T01:00:15.324Z,80.59
2022-12-17T01:03:03.202Z,80.78
2022-12-17T01:06:07.550Z,80.69
2022-12-17T01:09:00.289Z,80.84
2022-12-17T01:11:49.428Z,80.36
2022-12-17T01:14:38.062Z,80.62
2022-12-17T01:17:25.596Z,80.60
2022-12-17T01:20:13.864Z,80.82
2022-12-17T01:23:01.742Z,80.53
2022-12-17T01:25:50.301Z,80.57
2022-12-17T01:28:43.964Z,80.65
2022-12-17T01:31:35.324Z,80.50
2022-12-17T01:34:25.145Z,80.36
2022-12-17T01:37:16.222Z,80.38
2022-12-17T01:40:06.284Z,80.46
2022-12-17T01:43:21.243Z,80.22
2022-12-17T01:46:10.308Z,80.41
2022-12-17T01:49:03.492Z,80.33
2022-12-17T01:51:52.040Z,80.36
2022-12-17T01:54:41.399Z,80.29
2022-12-17T01:57:32.677Z,80.52
2022-12-17T02:00:29.090Z,80.36
2022-12-17T02:03:18.623Z,80.59
2022-12-17T02:06:29.786Z,80.67
2022-12-17T02:09:29.966Z,80.58
2022-12-17T02:12:30.476Z,80.50
2022-12-17T02:15:19.155Z,80.66
2022-12-17T02:18:12.612Z,80.75
2022-12-17T02:21:05.375Z,80.73
2022-12-17T02:24:14.612Z,80.67
2022-12-17T02:27:07.264Z,80.59
2022-12-17T02:30:21.044Z,80.55
2022-12-17T02:33:23.509Z,80.96
2022-12-17T02:36:26.441Z,80.84
2022-12-17T02:39:14.205Z,80.82
2022-12-17T02:42:06.985Z,80.63
2022-12-17T02:44:58.290Z,80.86
2022-12-17T02:47:48.429Z,80.74
2022-12-17T02:50:37.589Z,80.74
2022-12-17T02:53:26.766Z,80.48
2022-12-17T02:56:14.212Z,80.40
2022-12-17T02:59:21.910Z,80.32
2022-12-17T03:02:10.035Z,80.40
2022-12-17T03:05:10.585Z,80.37
2022-12-17T03:08:08.064Z,80.22
2022-12-17T03:11:03.868Z,80.19
2022-12-17T03:13:54.386Z,80.20
2022-12-17T03:16:47.309Z,80.21
2022-12-17T03:19:35.236Z,80.11
2022-12-17T03:22:25.622Z,80.30
2022-12-17T03:25:16.086Z,80.38
2022-12-17T03:28:05.022Z,80.21
2022-12-17T03:30:52.853Z,80.14
2022-12-17T03:33:40.699Z,80.19
2022-12-17T03:36:28.016Z,80.27
2022-12-17T03:39:17.188Z,80.26
2022-12-17T03:42:31.485Z,80.20
2022-12-17T03:45:19.168Z,80.12
2022-12-17T03:48:06.339Z,80.13
2022-12-17T03:50:56.830Z,80.26
2022-12-17T03:53:44.933Z,80.21
2022-12-17T03:56:32.360Z,80.12
2022-12-17T03:59:20.042Z,80.33
2022-12-17T04:02:07.789Z,80.30
2022-12-17T04:04:55.549Z,80.38
2022-12-17T04:07:43.589Z,80.59
2022-12-17T04:10:32.449Z,80.54
2022-12-17T04:13:21.566Z,80.63
2022-12-17T04:16:11.323Z,80.35
2022-12-17T04:18:59.280Z,80.43
2022-12-17T04:21:47.928Z,80.26
2022-12-17T04:24:36.078Z,80.42
2022-12-17T04:27:25.605Z,80.58
2022-12-17T04:30:13.536Z,80.72
2022-12-17T04:33:01.160Z,80.73
2022-12-17T04:35:48.960Z,80.54
2022-12-17T04:38:36.498Z,80.84
2022-12-17T04:41:24.469Z,80.62
2022-12-17T04:44:12.114Z,80.55
2022-12-17T04:46:59.859Z,80.65
2022-12-17T04:49:48.415Z,80.67
2022-12-17T04:52:35.775Z,80.61
2022-12-17T04:55:24.858Z,80.76
2022-12-17T04:58:12.129Z,80.76
2022-12-17T05:01:00.321Z,80.61
2022-12-17T05:03:49.658Z,80.92
2022-12-17T05:06:38.416Z,80.83
2022-12-17T05:09:28.913Z,80.74
2022-12-17T05:12:16.517Z,80.79
2022-12-17T05:15:04.740Z,80.66
2022-12-17T05:17:55.886Z,80.72
2022-12-17T05:20:45.445Z,80.75
2022-12-17T05:23:33.907Z,80.81
2022-12-17T05:26:46.053Z,80.78
2022-12-17T05:29:33.635Z,80.83
2022-12-17T05:32:21.053Z,80.72
2022-12-17T05:35:10.219Z,80.57
2022-12-17T05:37:58.059Z,80.78
2022-12-17T05:40:45.706Z,80.52
2022-12-17T05:43:33.796Z,80.60
2022-12-17T05:46:22.695Z,80.48
2022-12-17T05:49:12.013Z,80.56
2022-12-17T05:51:59.636Z,80.73
2022-12-17T05:54:48.885Z,80.80
2022-12-17T05:57:36.288Z,80.70
2022-12-17T06:00:26.220Z,80.72
2022-12-17T06:03:24.145Z,80.64
2022-12-17T06:06:15.879Z,80.88
2022-12-17T06:09:05.079Z,80.72
2022-12-17T06:11:56.620Z,80.78
2022-12-17T06:14:47.020Z,80.64
2022-12-17T06:17:34.880Z,80.88
2022-12-17T06:20:24.131Z,80.69
2022-12-17T06:23:22.619Z,80.60
2022-12-17T06:26:14.552Z,80.66
2022-12-17T06:29:02.867Z,80.90
2022-12-17T06:31:50.585Z,80.90
2022-12-17T06:34:38.310Z,80.68
2022-12-17T06:37:43.680Z,80.72
2022-12-17T06:40:31.575Z,80.56
2022-12-17T06:43:24.127Z,80.67
2022-12-17T06:46:11.445Z,80.61
2022-12-17T06:48:59.381Z,80.70
2022-12-17T06:51:47.094Z,80.69
2022-12-17T06:54:34.493Z,80.84
2022-12-17T06:57:22.279Z,80.68
2022-12-17T07:00:12.267Z,80.63
2022-12-17T07:03:03.073Z,80.87
2022-12-17T07:05:51.164Z,80.64
2022-12-17T07:08:40.481Z,80.69
2022-12-17T07:11:28.644Z,80.78
2022-12-17T07:14:17.226Z,80.70
2022-12-17T07:17:05.498Z,80.70
2022-12-17T07:19:53.089Z,80.70
2022-12-17T07:22:40.320Z,80.73
2022-12-17T07:25:27.907Z,80.72
2022-12-17T07:28:15.908Z,80.55
2022-12-17T07:31:05.317Z,80.60
2022-12-17T07:33:53.078Z,80.74
2022-12-17T07:36:40.686Z,80.82
2022-12-17T07:39:28.417Z,80.80
2022-12-17T07:42:21.830Z,80.69
2022-12-17T07:45:09.710Z,80.60
2022-12-17T07:47:57.431Z,80.61
2022-12-17T07:50:45.478Z,80.66
2022-12-17T07:53:33.055Z,80.35
2022-12-17T07:56:20.748Z,80.40
2022-12-17T07:59:08.529Z,80.63
2022-12-17T08:01:56.428Z,80.67
2022-12-17T08:04:45.753Z,80.59
2022-12-17T08:07:34.723Z,80.65
2022-12-17T08:10:23.647Z,80.55
2022-12-17T08:13:18.645Z,80.75
2022-12-17T08:16:07.307Z,80.66
2022-12-17T08:18:55.129Z,80.80
2022-12-17T08:21:43.272Z,80.74
2022-12-17T08:24:31.333Z,80.76
2022-12-17T08:27:19.002Z,80.79
2022-12-17T08:30:06.882Z,80.64
2022-12-17T08:32:56.684Z,80.57
2022-12-17T08:35:44.741Z,80.59
2022-12-17T08:38:33.618Z,80.31
2022-12-17T08:41:21.887Z,80.44
2022-12-17T08:44:23.570Z,80.55
2022-12-17T08:47:13.903Z,80.59
2022-12-17T08:50:01.912Z,80.59
2022-12-17T08:52:49.576Z,80.65
2022-12-17T08:55:37.225Z,80.61
2022-12-17T08:58:24.598Z,80.65
2022-12-17T09:01:13.052Z,80.61
2022-12-17T09:04:02.158Z,80.57
2022-12-17T09:06:51.981Z,80.63
2022-12-17T09:09:41.071Z,80.70
2022-12-17T09:12:30.832Z,80.59
2022-12-17T09:15:37.403Z,80.65
2022-12-17T09:18:25.734Z,80.56
2022-12-17T09:21:14.907Z,80.50
2022-12-17T09:24:02.549Z,80.55
2022-12-17T09:26:50.379Z,80.43
2022-12-17T09:29:38.465Z,80.43
2022-12-17T09:32:26.426Z,80.56
2022-12-17T09:35:16.919Z,80.68
2022-12-17T09:38:16.714Z,80.75
2022-12-17T09:41:10.544Z,80.59
2022-12-17T09:44:23.915Z,80.55
2022-12-17T09:47:32.823Z,80.31
2022-12-17T09:50:23.043Z,80.53
2022-12-17T09:53:12.331Z,80.56
2022-12-17T09:56:09.255Z,80.74
2022-12-17T09:58:59.570Z,80.77
2022-12-17T10:01:53.765Z,80.80
2022-12-17T10:04:56.485Z,81.16
2022-12-17T10:07:50.176Z,81.15
2022-12-17T10:10:52.666Z,80.80
2022-12-17T10:13:42.807Z,80.71
2022-12-17T10:17:07.059Z,80.85
2022-12-17T10:20:01.152Z,80.98
2022-12-17T10:22:49.231Z,80.78
2022-12-17T10:25:42.607Z,80.99
2022-12-17T10:28:43.494Z,80.76
2022-12-17T10:31:39.542Z,80.97
2022-12-17T10:34:40.185Z,80.92
2022-12-17T10:37:38.877Z,80.86
2022-12-17T10:40:45.192Z,81.11
2022-12-17T10:43:51.321Z,81.29
2022-12-17T10:46:49.686Z,81.11
2022-12-17T10:49:39.419Z,81.20
2022-12-17T10:52:50.941Z,81.21
2022-12-17T10:56:23.028Z,81.15
2022-12-17T10:59:13.496Z,81.13
2022-12-17T11:02:01.831Z,81.15
2022-12-17T11:04:57.590Z,81.23
2022-12-17T11:07:56.206Z,81.18
2022-12-17T11:10:50.467Z,81.00
2022-12-17T11:13:50.430Z,81.12
2022-12-17T11:16:49.641Z,81.12
2022-12-17T11:20:01.974Z,81.14
2022-12-17T11:23:19.394Z,81.07
2022-12-17T11:26:32.702Z,81.13
2022-12-17T11:29:20.219Z,81.31
2022-12-17T11:32:40.586Z,81.25
2022-12-17T11:35:40.214Z,81.34
2022-12-17T11:38:58.170Z,81.40
2022-12-17T11:42:26.744Z,81.40
2022-12-17T11:45:50.622Z,81.55
2022-12-17T11:49:12.859Z,81.41
2022-12-17T11:52:32.318Z,81.39
2022-12-17T11:55:31.278Z,81.29
2022-12-17T11:58:37.271Z,81.38
2022-12-17T12:01:36.574Z,81.32
2022-12-17T12:04:47.621Z,81.48
2022-12-17T12:07:48.437Z,81.49
2022-12-17T12:10:53.282Z,81.44
2022-12-17T12:14:01.243Z,81.62
2022-12-17T12:17:34.145Z,81.35
2022-12-17T12:20:54.787Z,81.46
2022-12-17T12:23:56.014Z,81.54
2022-12-17T12:26:59.025Z,81.59
2022-12-17T12:30:03.523Z,81.63
2022-12-17T12:33:21.833Z,81.72
2022-12-17T12:36:17.057Z,81.63
2022-12-17T12:39:12.362Z,81.66
2022-12-17T12:42:25.507Z,81.53
2022-12-17T12:45:45.933Z,81.70
2022-12-17T12:48:53.513Z,81.62
2022-12-17T12:51:49.796Z,81.80
2022-12-17T12:55:05.763Z,81.81
2022-12-17T12:57:56.071Z,81.96
2022-12-17T13:00:59.170Z,81.87
2022-12-17T13:03:49.525Z,81.91
2022-12-17T13:06:41.912Z,81.83
2022-12-17T13:09:19.088Z,81.84
2022-12-17T13:12:05.257Z,82.07
2022-12-17T13:14:44.657Z,81.99
2022-12-17T13:17:19.094Z,82.11
2022-12-17T13:19:57.987Z,82.16
2022-12-17T13:22:33.984Z,82.15
2022-12-17T13:25:19.882Z,82.25
2022-12-17T13:27:52.233Z,82.21
2022-12-17T13:30:54.108Z,82.31
2022-12-17T13:34:07.248Z,82.19
2022-12-17T13:37:28.796Z,82.36
2022-12-17T13:43:24.404Z,82.16
2022-12-17T13:45:56.115Z,82.05
2022-12-17T13:48:29.572Z,82.18
2022-12-17T13:51:07.902Z,82.20
2022-12-17T13:53:39.838Z,82.30
2022-12-17T13:56:12.301Z,82.30
2022-12-17T13:58:42.643Z,82.29
2022-12-17T14:01:28.411Z,82.33
2022-12-17T14:04:06.935Z,82.15
2022-12-17T14:06:52.384Z,82.17
2022-12-17T14:09:43.461Z,82.15
2022-12-17T14:12:27.231Z,82.09
2022-12-17T14:15:01.628Z,82.13
2022-12-17T14:17:38.845Z,82.24
2022-12-17T14:20:22.014Z,82.46
2022-12-17T14:23:00.264Z,82.35
2022-12-17T14:25:40.584Z,82.35
2022-12-17T14:28:36.211Z,82.23
2022-12-17T14:31:28.372Z,82.20
2022-12-17T14:34:17.935Z,82.34
2022-12-17T14:36:54.205Z,82.31
2022-12-17T14:39:30.356Z,82.21
2022-12-17T14:42:27.478Z,81.98
2022-12-17T14:45:06.786Z,82.21
2022-12-17T14:47:38.139Z,81.89
2022-12-17T14:50:37.303Z,82.13
2022-12-17T14:53:26.592Z,82.07
2022-12-17T14:55:58.940Z,82.09
2022-12-17T14:58:28.294Z,82.14
2022-12-17T15:01:09.257Z,82.22
2022-12-17T15:03:48.689Z,82.41
2022-12-17T15:06:20.322Z,82.33
2022-12-17T15:08:51.532Z,82.12
2022-12-17T15:11:23.236Z,82.12
2022-12-17T15:13:56.254Z,82.14
2022-12-17T15:16:25.676Z,82.11
2022-12-17T15:18:55.552Z,82.11
2022-12-17T15:21:26.326Z,82.29
2022-12-17T15:23:55.321Z,82.31
2022-12-17T15:26:25.497Z,82.49
2022-12-17T15:28:53.208Z,82.43
2022-12-17T15:31:36.198Z,82.47
2022-12-17T15:37:21.112Z,82.44
2022-12-17T15:39:53.615Z,82.39
2022-12-17T15:43:30.475Z,82.39
2022-12-17T15:46:02.047Z,82.51
2022-12-17T15:48:32.946Z,82.56
2022-12-17T15:51:02.190Z,82.63
2022-12-17T15:53:33.180Z,82.59
2022-12-17T15:56:04.428Z,82.47
2022-12-17T15:58:35.546Z,82.61
2022-12-17T16:01:07.156Z,82.60
2022-12-17T16:03:39.061Z,82.69
2022-12-17T16:06:10.010Z,82.68
2022-12-17T16:08:41.512Z,82.64
2022-12-17T16:11:16.775Z,82.59
2022-12-17T16:13:54.984Z,82.44
2022-12-17T16:16:26.240Z,82.34
2022-12-17T16:18:55.609Z,82.35
2022-12-17T16:21:27.681Z,82.46
2022-12-17T16:24:02.531Z,82.53
2022-12-17T16:26:34.948Z,82.61
2022-12-17T16:29:06.970Z,82.70
2022-12-17T16:31:38.894Z,82.75
2022-12-17T16:34:12.014Z,82.80
2022-12-17T16:36:41.478Z,82.81
2022-12-17T16:39:19.087Z,82.84
2022-12-17T16:41:52.101Z,82.66
2022-12-17T16:44:23.667Z,82.67
2022-12-17T16:46:54.062Z,82.87
2022-12-17T16:49:25.902Z,83.00
2022-12-17T16:52:00.567Z,83.18
2022-12-17T16:54:35.289Z,83.01
2022-12-17T16:57:05.771Z,83.10
2022-12-17T16:59:35.885Z,82.97
2022-12-17T17:02:10.690Z,83.13
2022-12-17T17:04:41.771Z,83.00
2022-12-17T17:07:11.272Z,83.07
2022-12-17T17:09:42.275Z,82.86
2022-12-17T17:12:13.201Z,82.94
2022-12-17T17:14:44.749Z,82.89
2022-12-17T17:17:14.157Z,82.97
2022-12-17T17:19:45.590Z,83.05
2022-12-17T17:22:14.435Z,83.12
2022-12-17T17:24:44.961Z,83.26
2022-12-17T17:27:13.860Z,83.04
2022-12-17T17:29:42.931Z,83.17
2022-12-17T17:32:14.006Z,83.13
2022-12-17T17:34:43.811Z,83.01
2022-12-17T17:37:16.268Z,82.92
2022-12-17T17:39:47.053Z,82.92
2022-12-17T17:42:17.000Z,83.10
2022-12-17T17:44:50.010Z,83.08
2022-12-17T17:47:22.014Z,83.23
2022-12-17T17:49:53.615Z,83.25
2022-12-17T17:52:26.830Z,83.18
2022-12-17T17:54:58.501Z,83.17
2022-12-17T17:57:27.819Z,83.13
2022-12-17T17:59:57.717Z,83.29
2022-12-17T18:02:27.718Z,83.26
2022-12-17T18:05:00.024Z,83.15
2022-12-17T18:07:28.840Z,83.23
2022-12-17T18:10:00.228Z,83.31
2022-12-17T18:12:50.896Z,83.37
2022-12-17T18:15:20.550Z,83.30
2022-12-17T18:17:53.158Z,83.35
2022-12-17T18:20:29.935Z,83.32
2022-12-17T18:22:59.460Z,83.37
2022-12-17T18:25:37.636Z,83.29
2022-12-17T18:28:10.219Z,83.40
2022-12-17T18:30:41.248Z,83.54
2022-12-17T18:33:15.028Z,83.49
2022-12-17T18:35:45.919Z,83.62
2022-12-17T18:38:18.509Z,83.57
2022-12-17T18:40:49.849Z,83.75
2022-12-17T18:43:26.106Z,83.64
2022-12-17T18:45:56.950Z,83.48
2022-12-17T18:48:27.410Z,83.63
2022-12-17T18:51:07.120Z,83.70
2022-12-17T18:53:44.900Z,83.78
2022-12-17T18:56:31.629Z,83.64
2022-12-17T18:59:07.060Z,83.57
2022-12-17T19:01:39.190Z,83.63
2022-12-17T19:04:13.198Z,83.56
2022-12-17T19:06:45.669Z,83.51
2022-12-17T19:09:22.412Z,83.78
2022-12-17T19:11:54.218Z,83.80
2022-12-17T19:14:26.308Z,83.75
2022-12-17T19:16:58.720Z,83.62
2022-12-17T19:19:29.143Z,83.53
2022-12-17T19:22:01.187Z,83.57
2022-12-17T19:24:34.219Z,83.53
2022-12-17T19:27:05.129Z,83.42
2022-12-17T19:29:35.061Z,83.52
2022-12-17T19:32:05.751Z,83.64
2022-12-17T19:34:35.621Z,83.62
2022-12-17T19:37:06.835Z,83.69
2022-12-17T19:39:39.700Z,83.51
2022-12-17T19:45:10.297Z,83.64
2022-12-17T19:47:57.943Z,83.50
2022-12-17T19:50:30.160Z,83.62
2022-12-17T19:53:07.777Z,83.61
2022-12-17T19:55:37.182Z,83.53
2022-12-17T19:58:08.000Z,83.45
2022-12-17T20:00:40.965Z,83.65
2022-12-17T20:03:11.761Z,83.58
2022-12-17T20:05:47.155Z,83.63
2022-12-17T20:08:22.325Z,83.48
2022-12-17T20:10:52.772Z,83.36
2022-12-17T20:13:26.218Z,83.59
2022-12-17T20:16:06.062Z,83.63
2022-12-17T20:18:38.690Z,83.56
2022-12-17T20:21:08.428Z,83.80
2022-12-17T20:23:40.058Z,83.82
2022-12-17T20:26:14.088Z,83.67
2022-12-17T20:28:46.773Z,83.60
2022-12-17T20:31:18.452Z,83.78
2022-12-17T20:33:48.742Z,83.71
2022-12-17T20:36:24.233Z,83.79
2022-12-17T20:38:58.987Z,83.77
2022-12-17T20:42:21.492Z,83.83
2022-12-17T20:44:53.637Z,83.89
2022-12-17T20:47:23.355Z,84.05
2022-12-17T20:49:53.751Z,83.97
2022-12-17T20:52:26.287Z,83.91
2022-12-17T20:54:55.999Z,83.90
2022-12-17T20:57:26.661Z,83.77
2022-12-17T20:59:57.639Z,84.00
2022-12-17T21:02:28.577Z,83.77
2022-12-17T21:04:59.330Z,84.00
2022-12-17T21:07:29.018Z,83.99
2022-12-17T21:09:58.900Z,83.75
2022-12-17T21:12:47.886Z,83.91
2022-12-17T21:15:18.582Z,83.79
2022-12-17T21:17:49.886Z,83.73
2022-12-17T21:20:18.909Z,83.84
2022-12-17T21:22:50.070Z,83.74
2022-12-17T21:25:19.420Z,83.75
2022-12-17T21:27:49.083Z,83.83
2022-12-17T21:30:19.871Z,83.80
2022-12-17T21:32:49.948Z,84.04
2022-12-17T21:35:19.365Z,83.71
2022-12-17T21:37:48.859Z,83.74
2022-12-17T21:40:20.200Z,83.80
2022-12-17T21:43:40.022Z,83.90
2022-12-17T21:46:11.798Z,83.98
2022-12-17T21:48:45.358Z,83.99
2022-12-17T21:51:15.617Z,83.75
2022-12-17T21:53:46.013Z,83.80
2022-12-17T21:56:17.931Z,83.81
2022-12-17T21:58:50.053Z,83.84
2022-12-17T22:01:26.810Z,83.92
2022-12-17T22:03:59.370Z,83.90
2022-12-17T22:06:42.481Z,83.84
2022-12-17T22:10:11.617Z,83.70
2022-12-17T22:13:02.019Z,83.77
2022-12-17T22:15:38.675Z,83.74
2022-12-17T22:18:18.356Z,83.83
2022-12-17T22:21:00.854Z,83.95
2022-12-17T22:23:31.190Z,83.78
2022-12-17T22:26:01.404Z,83.84
2022-12-17T22:28:30.364Z,83.98
2022-12-17T22:31:23.553Z,84.03
2022-12-17T22:34:49.769Z,83.83
2022-12-17T22:40:19.235Z,83.89
2022-12-17T22:44:29.081Z,83.83
2022-12-17T22:44:45.552Z,83.81
2022-12-17T22:45:32.567Z,84.03
2022-12-17T22:48:03.018Z,84.10
2022-12-17T22:50:39.168Z,83.84
2022-12-17T22:53:27.920Z,83.75
2022-12-17T22:56:14.709Z,83.88
2022-12-17T22:58:51.606Z,83.77
2022-12-17T23:01:23.374Z,83.67
2022-12-17T23:03:57.256Z,83.53
2022-12-17T23:06:27.202Z,83.56
2022-12-17T23:08:59.401Z,83.61
2022-12-17T23:11:30.058Z,83.47
2022-12-17T23:14:03.220Z,83.55
2022-12-17T23:16:33.212Z,83.84
2022-12-17T23:19:02.555Z,83.64
2022-12-17T23:21:32.474Z,83.67
2022-12-17T23:24:02.447Z,83.46
2022-12-17T23:26:36.870Z,83.64
2022-12-17T23:29:14.918Z,83.86
2022-12-17T23:31:48.605Z,83.69
2022-12-17T23:34:17.893Z,83.35
2022-12-17T23:36:47.808Z,83.40
2022-12-17T23:39:18.416Z,83.29
2022-12-17T23:46:21.991Z,83.45
2022-12-17T23:48:54.243Z,83.49
2022-12-17T23:51:24.901Z,83.57
2022-12-17T23:53:54.990Z,83.43
2022-12-17T23:56:29.076Z,83.70
2022-12-17T23:59:00.717Z,83.75
